createdAt,value
2023-09-04T00:00:57.085Z,19.13
2023-09-04T00:03:27.357Z,19.11
2023-09-04T00:05:55.393Z,19.09
2023-09-04T00:08:23.868Z,19.08
2023-09-04T00:10:51.869Z,19.04
2023-09-04T00:13:19.711Z,19.00
2023-09-04T00:15:48.949Z,19.00
2023-09-04T00:18:17.115Z,18.94
2023-09-04T00:20:44.922Z,18.90
2023-09-04T00:23:12.897Z,18.87
2023-09-04T00:25:40.750Z,18.84
2023-09-04T00:28:09.341Z,18.82
2023-09-04T00:30:37.239Z,18.80
2023-09-04T00:33:06.674Z,18.80
2023-09-04T00:35:34.500Z,18.77
2023-09-04T00:38:02.314Z,18.76
2023-09-04T00:40:30.173Z,18.74
2023-09-04T00:42:58.020Z,18.73
2023-09-04T00:45:25.870Z,18.73
2023-09-04T00:47:53.998Z,18.71
2023-09-04T00:50:25.126Z,18.72
2023-09-04T00:52:56.023Z,18.69
2023-09-04T00:55:24.984Z,18.66
2023-09-04T00:57:54.311Z,18.65
2023-09-04T01:00:26.564Z,18.62
2023-09-04T01:02:54.565Z,18.58
2023-09-04T01:05:23.924Z,18.62
2023-09-04T01:07:51.942Z,18.59
2023-09-04T01:10:19.812Z,18.58
2023-09-04T01:12:53.705Z,18.60
2023-09-04T01:15:21.946Z,18.56
2023-09-04T01:17:51.200Z,18.55
2023-09-04T01:20:26.573Z,18.57
2023-09-04T01:22:54.827Z,18.50
2023-09-04T01:25:23.473Z,18.50
2023-09-04T01:27:59.333Z,18.50
2023-09-04T01:30:34.747Z,18.49
2023-09-04T01:33:09.967Z,18.48
2023-09-04T01:35:40.526Z,18.46
2023-09-04T01:38:08.848Z,18.42
2023-09-04T01:40:36.719Z,18.41
2023-09-04T01:43:04.873Z,18.40
2023-09-04T01:45:33.274Z,18.37
2023-09-04T01:48:01.195Z,18.37
2023-09-04T01:50:29.003Z,18.35
2023-09-04T01:52:58.160Z,18.35
2023-09-04T01:55:26.570Z,18.31
2023-09-04T01:57:54.398Z,18.29
2023-09-04T02:00:23.411Z,18.28
2023-09-04T02:02:54.631Z,18.27
2023-09-04T02:05:22.638Z,18.24
2023-09-04T02:07:50.466Z,18.24
2023-09-04T02:10:19.685Z,18.24
2023-09-04T02:12:47.499Z,18.20
2023-09-04T02:15:15.413Z,18.20
2023-09-04T02:17:43.286Z,18.19
2023-09-04T02:20:12.443Z,18.19
2023-09-04T02:22:40.259Z,18.17
2023-09-04T02:25:09.393Z,18.16
2023-09-04T02:27:38.570Z,18.18
2023-09-04T02:30:08.904Z,18.16
2023-09-04T02:32:37.012Z,18.15
2023-09-04T02:35:05.672Z,18.15
2023-09-04T02:37:33.633Z,18.15
2023-09-04T02:40:01.522Z,18.14
2023-09-04T02:42:30.221Z,18.14
2023-09-04T02:44:59.438Z,18.16
2023-09-04T02:47:27.367Z,18.13
2023-09-04T02:49:55.407Z,18.13
2023-09-04T02:52:23.370Z,18.12
2023-09-04T02:54:51.292Z,18.11
2023-09-04T02:57:19.085Z,18.11
2023-09-04T02:59:47.010Z,18.10
2023-09-04T03:02:16.429Z,18.11
2023-09-04T03:04:44.332Z,18.08
2023-09-04T03:07:12.143Z,18.07
2023-09-04T03:09:39.987Z,18.06
2023-09-04T03:12:08.568Z,18.06
2023-09-04T03:14:36.419Z,18.04
2023-09-04T03:17:05.607Z,18.01
2023-09-04T03:19:35.650Z,18.04
2023-09-04T03:22:03.789Z,17.99
2023-09-04T03:24:31.782Z,17.99
2023-09-04T03:27:00.023Z,17.98
2023-09-04T03:29:28.528Z,17.96
2023-09-04T03:31:57.151Z,17.94
2023-09-04T03:34:26.886Z,17.92
2023-09-04T03:36:56.006Z,17.94
2023-09-04T03:39:24.035Z,17.89
2023-09-04T03:41:51.803Z,17.88
2023-09-04T03:44:19.780Z,17.86
2023-09-04T03:46:47.724Z,17.86
2023-09-04T03:49:15.938Z,17.82
2023-09-04T03:51:43.786Z,17.82
2023-09-04T03:54:13.094Z,17.81
2023-09-04T03:56:40.925Z,17.76
2023-09-04T03:59:08.765Z,17.74
2023-09-04T04:01:36.580Z,17.72
2023-09-04T04:04:04.490Z,17.69
2023-09-04T04:06:32.474Z,17.67
2023-09-04T04:09:00.389Z,17.65
2023-09-04T04:11:29.626Z,17.66
2023-09-04T04:13:58.332Z,17.62
2023-09-04T04:16:26.234Z,17.61
2023-09-04T04:18:54.086Z,17.60
2023-09-04T04:21:21.931Z,17.60
2023-09-04T04:23:49.820Z,17.58
2023-09-04T04:26:18.012Z,17.57
2023-09-04T04:31:35.541Z,17.55
2023-09-04T04:34:04.674Z,17.52
2023-09-04T04:36:32.886Z,17.52
2023-09-04T04:39:00.794Z,17.50
2023-09-04T04:41:28.720Z,17.49
2023-09-04T04:43:56.588Z,17.49
2023-09-04T04:46:24.648Z,17.46
2023-09-04T04:48:55.061Z,17.46
2023-09-04T04:51:22.956Z,17.43
2023-09-04T04:53:50.819Z,17.40
2023-09-04T04:56:18.702Z,17.37
2023-09-04T04:58:46.532Z,17.34
2023-09-04T05:01:14.449Z,17.32
2023-09-04T05:03:42.385Z,17.31
2023-09-04T05:06:12.028Z,17.32
2023-09-04T05:08:40.338Z,17.29
2023-09-04T05:11:09.403Z,17.28
2023-09-04T05:13:39.632Z,17.28
2023-09-04T05:16:07.599Z,17.28
2023-09-04T05:18:38.012Z,17.26
2023-09-04T05:21:09.878Z,17.26
2023-09-04T05:23:39.134Z,17.26
2023-09-04T05:26:07.746Z,17.24
2023-09-04T05:28:35.974Z,17.22
2023-09-04T05:31:05.051Z,17.22
2023-09-04T05:33:33.271Z,17.21
2023-09-04T05:36:01.954Z,17.21
2023-09-04T05:38:29.905Z,17.20
2023-09-04T05:40:59.507Z,17.22
2023-09-04T05:43:27.434Z,17.19
2023-09-04T05:45:55.477Z,17.19
2023-09-04T05:48:23.471Z,17.18
2023-09-04T05:50:51.710Z,17.17
2023-09-04T05:53:20.565Z,17.17
2023-09-04T05:56:10.423Z,17.18
2023-09-04T05:58:45.398Z,17.19
2023-09-04T06:01:13.700Z,17.15
2023-09-04T06:03:42.009Z,17.15
2023-09-04T06:06:10.444Z,17.13
2023-09-04T06:08:38.961Z,17.13
2023-09-04T06:11:08.488Z,17.13
2023-09-04T06:13:36.380Z,17.10
2023-09-04T06:16:04.853Z,17.08
2023-09-04T06:18:33.011Z,17.08
2023-09-04T06:21:00.914Z,17.06
2023-09-04T06:23:28.785Z,17.05
2023-09-04T06:25:56.682Z,17.02
2023-09-04T06:28:27.553Z,17.03
2023-09-04T06:30:56.384Z,17.00
2023-09-04T06:33:25.293Z,17.03
2023-09-04T06:35:53.326Z,17.05
2023-09-04T06:38:21.409Z,17.06
2023-09-04T06:40:49.463Z,17.06
2023-09-04T06:43:17.311Z,17.08
2023-09-04T06:45:46.626Z,17.11
2023-09-04T06:48:14.529Z,17.11
2023-09-04T06:50:43.038Z,17.15
2023-09-04T06:53:11.622Z,17.16
2023-09-04T06:55:39.508Z,17.18
2023-09-04T06:58:07.351Z,17.23
2023-09-04T07:00:36.059Z,17.28
2023-09-04T07:03:06.184Z,17.36
2023-09-04T07:05:34.401Z,17.42
2023-09-04T07:08:02.320Z,17.49
2023-09-04T07:10:30.239Z,17.57
2023-09-04T07:12:58.242Z,17.67
2023-09-04T07:15:26.183Z,17.77
2023-09-04T07:17:54.230Z,17.87
2023-09-04T07:20:23.505Z,18.00
2023-09-04T07:22:51.356Z,18.10
2023-09-04T07:25:19.620Z,18.20
2023-09-04T07:27:47.571Z,18.30
2023-09-04T07:30:15.626Z,18.42
2023-09-04T07:32:43.558Z,18.52
2023-09-04T07:35:12.109Z,18.64
2023-09-04T07:37:41.470Z,18.75
2023-09-04T07:40:10.489Z,18.84
2023-09-04T07:42:38.679Z,18.94
2023-09-04T07:45:07.500Z,19.03
2023-09-04T07:47:35.569Z,19.11
2023-09-04T07:50:04.228Z,19.22
2023-09-04T07:52:32.161Z,19.32
2023-09-04T07:55:01.494Z,19.44
2023-09-04T07:57:29.371Z,19.50
2023-09-04T07:59:59.595Z,19.61
2023-09-04T08:02:27.629Z,19.70
2023-09-04T08:04:55.503Z,19.79
2023-09-04T08:07:23.455Z,19.87
2023-09-04T08:09:51.374Z,19.96
2023-09-04T08:12:20.729Z,20.07
2023-09-04T08:14:49.081Z,20.13
2023-09-04T08:17:16.970Z,20.21
2023-09-04T08:19:44.835Z,20.29
2023-09-04T08:22:12.717Z,20.37
2023-09-04T08:24:40.556Z,20.45
2023-09-04T08:27:08.396Z,20.53
2023-09-04T08:29:37.659Z,20.63
2023-09-04T08:32:06.159Z,20.69
2023-09-04T08:34:34.054Z,20.75
2023-09-04T08:37:02.052Z,20.81
2023-09-04T08:39:29.926Z,20.86
2023-09-04T08:41:58.039Z,20.92
2023-09-04T08:44:26.797Z,20.99
2023-09-04T08:46:58.785Z,21.07
2023-09-04T08:49:28.386Z,21.10
2023-09-04T08:51:57.907Z,21.18
2023-09-04T08:54:26.599Z,21.22
2023-09-04T08:56:54.625Z,21.28
2023-09-04T08:59:22.490Z,21.32
2023-09-04T09:01:51.425Z,21.37
2023-09-04T09:04:23.005Z,21.44
2023-09-04T09:06:51.676Z,21.44
2023-09-04T09:09:23.124Z,21.52
2023-09-04T09:11:55.146Z,21.52
2023-09-04T09:14:24.016Z,21.55
2023-09-04T09:17:03.868Z,21.63
2023-09-04T09:19:36.049Z,21.65
2023-09-04T09:22:11.751Z,21.69
2023-09-04T09:24:54.251Z,21.72
2023-09-04T09:27:25.827Z,21.75
2023-09-04T09:29:56.736Z,21.79
2023-09-04T09:32:24.938Z,21.83
2023-09-04T09:34:56.178Z,21.91
2023-09-04T09:37:26.575Z,21.92
2023-09-04T09:39:54.888Z,21.97
2023-09-04T09:42:24.598Z,22.01
2023-09-04T09:44:53.246Z,22.07
2023-09-04T09:47:22.435Z,22.11
2023-09-04T09:49:50.453Z,22.16
2023-09-04T09:52:19.755Z,22.25
2023-09-04T09:54:49.568Z,22.32
2023-09-04T09:57:19.612Z,22.36
2023-09-04T09:59:50.440Z,22.42
2023-09-04T10:02:20.960Z,22.50
2023-09-04T10:04:49.023Z,22.55
2023-09-04T10:07:20.344Z,22.64
2023-09-04T10:09:51.100Z,22.69
2023-09-04T10:12:27.849Z,22.80
2023-09-04T10:14:59.011Z,22.85
2023-09-04T10:17:36.503Z,22.94
2023-09-04T10:20:07.163Z,23.00
2023-09-04T10:22:40.296Z,23.08
2023-09-04T10:25:15.000Z,23.14
2023-09-04T10:27:46.869Z,23.19
2023-09-04T10:30:19.373Z,23.24
2023-09-04T10:32:48.175Z,23.31
2023-09-04T10:35:17.075Z,23.38
2023-09-04T10:37:48.509Z,23.45
2023-09-04T10:40:16.924Z,23.48
2023-09-04T10:42:45.506Z,23.58
2023-09-04T10:45:14.878Z,23.65
2023-09-04T10:47:47.420Z,23.73
2023-09-04T10:50:39.764Z,23.75
2023-09-04T10:53:10.874Z,23.84
2023-09-04T10:55:40.261Z,23.90
2023-09-04T10:58:09.750Z,23.96
2023-09-04T11:00:38.920Z,24.03
2023-09-04T11:03:17.306Z,24.10
2023-09-04T11:06:16.012Z,24.09
2023-09-04T11:08:53.322Z,24.18
2023-09-04T11:11:28.365Z,24.25
2023-09-04T11:14:03.645Z,24.28
2023-09-04T11:16:39.152Z,24.31
2023-09-04T11:19:10.727Z,24.33
2023-09-04T11:21:40.835Z,24.34
2023-09-04T11:24:10.162Z,24.41
2023-09-04T11:26:38.358Z,24.42
2023-09-04T11:29:07.662Z,24.44
2023-09-04T11:31:36.876Z,24.46
2023-09-04T11:34:05.857Z,24.48
2023-09-04T11:36:39.146Z,24.52
2023-09-04T11:39:09.233Z,24.51
2023-09-04T11:41:38.519Z,24.55
2023-09-04T11:44:08.364Z,24.55
2023-09-04T11:46:37.030Z,24.56
2023-09-04T11:49:05.532Z,24.58
2023-09-04T11:51:34.103Z,24.59
2023-09-04T11:54:05.812Z,24.63
2023-09-04T11:56:33.719Z,24.60
2023-09-04T11:59:06.575Z,24.66
2023-09-04T12:01:35.443Z,24.66
2023-09-04T12:04:05.113Z,24.70
2023-09-04T12:06:37.254Z,24.72
2023-09-04T12:09:06.308Z,24.44
2023-09-04T12:11:34.575Z,24.73
2023-09-04T12:14:10.308Z,24.84
2023-09-04T12:16:38.313Z,24.82
2023-09-04T12:19:07.046Z,24.89
2023-09-04T12:21:35.199Z,24.89
2023-09-04T12:24:04.443Z,24.94
2023-09-04T12:26:33.335Z,24.98
2023-09-04T12:29:01.287Z,25.00
2023-09-04T12:31:30.868Z,25.06
2023-09-04T12:33:58.784Z,25.08
2023-09-04T12:36:26.969Z,25.12
2023-09-04T12:38:54.803Z,25.15
2023-09-04T12:41:23.175Z,25.20
2023-09-04T12:43:52.091Z,25.23
2023-09-04T12:46:20.494Z,25.27
2023-09-04T12:48:49.656Z,25.32
2023-09-04T12:51:17.505Z,25.34
2023-09-04T12:53:45.464Z,25.37
2023-09-04T12:56:13.399Z,25.40
2023-09-04T12:58:41.264Z,25.43
2023-09-04T13:01:10.222Z,25.45
2023-09-04T13:03:38.246Z,25.48
2023-09-04T13:06:08.576Z,25.53
2023-09-04T13:08:36.484Z,25.52
2023-09-04T13:11:04.689Z,25.54
2023-09-04T13:13:32.551Z,25.54
2023-09-04T13:16:00.392Z,25.54
2023-09-04T13:18:28.226Z,25.55
2023-09-04T13:20:56.169Z,25.55
2023-09-04T13:23:25.853Z,25.57
2023-09-04T13:25:53.908Z,25.55
2023-09-04T13:28:22.112Z,25.56
2023-09-04T13:30:51.091Z,25.57
2023-09-04T13:33:19.075Z,25.56
2023-09-04T13:35:46.944Z,25.57
2023-09-04T13:38:15.461Z,25.58
2023-09-04T13:40:44.862Z,25.60
2023-09-04T13:43:12.734Z,25.57
2023-09-04T13:45:40.939Z,25.57
2023-09-04T13:48:08.867Z,25.56
2023-09-04T13:50:36.804Z,25.56
2023-09-04T13:53:05.881Z,25.54
2023-09-04T13:55:33.914Z,25.51
2023-09-04T13:58:03.385Z,25.54
2023-09-04T14:00:31.259Z,25.51
2023-09-04T14:02:59.376Z,25.49
2023-09-04T14:05:30.422Z,25.49
2023-09-04T14:07:58.340Z,25.48
2023-09-04T14:10:26.237Z,25.50
2023-09-04T14:12:54.132Z,25.49
2023-09-04T14:15:23.386Z,25.50
2023-09-04T14:17:51.368Z,25.49
2023-09-04T14:20:19.752Z,25.49
2023-09-04T14:22:47.775Z,25.48
2023-09-04T14:25:15.697Z,25.48
2023-09-04T14:27:43.671Z,25.49
2023-09-04T14:30:12.493Z,25.50
2023-09-04T14:32:41.901Z,25.51
2023-09-04T14:35:10.460Z,25.51
2023-09-04T14:37:38.550Z,25.50
2023-09-04T14:40:07.859Z,25.50
2023-09-04T14:42:37.078Z,25.50
2023-09-04T14:45:05.778Z,25.51
2023-09-04T14:47:35.717Z,25.51
2023-09-04T14:50:05.777Z,25.54
2023-09-04T14:52:33.643Z,25.51
2023-09-04T14:55:01.672Z,25.53
2023-09-04T14:57:30.093Z,25.52
2023-09-04T14:59:58.183Z,25.50
2023-09-04T15:02:26.226Z,25.49
2023-09-04T15:04:54.171Z,25.48
2023-09-04T15:07:23.479Z,25.49
2023-09-04T15:09:51.295Z,25.47
2023-09-04T15:12:19.203Z,25.45
2023-09-04T15:14:47.107Z,25.46
2023-09-04T15:17:14.942Z,25.44
2023-09-04T15:19:42.803Z,25.44
2023-09-04T15:22:10.788Z,25.43
2023-09-04T15:24:39.996Z,25.45
2023-09-04T15:27:07.901Z,25.42
2023-09-04T15:29:35.813Z,25.42
2023-09-04T15:32:03.766Z,25.42
2023-09-04T15:34:31.708Z,25.42
2023-09-04T15:36:59.656Z,25.41
2023-09-04T15:39:27.509Z,25.42
2023-09-04T15:41:56.794Z,25.43
2023-09-04T15:44:24.749Z,25.39
2023-09-04T15:46:52.725Z,25.40
2023-09-04T15:49:20.703Z,25.40
2023-09-04T15:51:48.743Z,25.38
2023-09-04T15:54:16.570Z,25.38
2023-09-04T15:56:44.508Z,25.38
2023-09-04T15:59:13.705Z,25.38
2023-09-04T16:01:41.667Z,25.34
2023-09-04T16:04:09.616Z,25.33
2023-09-04T16:06:37.482Z,25.33
2023-09-04T16:09:05.648Z,25.33
2023-09-04T16:11:33.525Z,25.33
2023-09-04T16:14:01.360Z,25.32
2023-09-04T16:16:30.661Z,25.34
2023-09-04T16:19:01.920Z,25.31
2023-09-04T16:21:30.170Z,25.28
2023-09-04T16:23:59.787Z,25.30
2023-09-04T16:26:29.178Z,25.30
2023-09-04T16:28:57.140Z,25.28
2023-09-04T16:31:25.557Z,25.27
2023-09-04T16:33:54.921Z,25.29
2023-09-04T16:36:22.979Z,25.26
2023-09-04T16:38:50.923Z,25.26
2023-09-04T16:41:18.849Z,25.25
2023-09-04T16:43:46.741Z,25.24
2023-09-04T16:46:14.887Z,25.23
2023-09-04T16:48:43.462Z,25.23
2023-09-04T16:51:12.740Z,25.23
2023-09-04T16:53:41.124Z,25.21
2023-09-04T16:56:09.111Z,25.20
2023-09-04T16:58:46.360Z,25.22
2023-09-04T17:01:14.851Z,25.19
2023-09-04T17:03:42.937Z,25.19
2023-09-04T17:06:12.501Z,25.19
2023-09-04T17:08:40.458Z,25.17
2023-09-04T17:11:08.485Z,25.15
2023-09-04T17:13:36.378Z,25.14
2023-09-04T17:16:04.605Z,25.13
2023-09-04T17:18:32.618Z,25.12
2023-09-04T17:21:00.525Z,25.11
2023-09-04T17:23:29.841Z,25.11
2023-09-04T17:25:57.854Z,25.08
2023-09-04T17:28:26.121Z,25.08
2023-09-04T17:30:54.293Z,25.06
2023-09-04T17:33:22.239Z,25.04
2023-09-04T17:35:50.126Z,25.03
2023-09-04T17:38:18.030Z,25.03
2023-09-04T17:40:47.522Z,25.03
2023-09-04T17:43:15.397Z,24.98
2023-09-04T17:45:50.407Z,25.00
2023-09-04T17:48:18.388Z,24.94
2023-09-04T17:50:46.255Z,24.92
2023-09-04T17:53:14.146Z,24.89
2023-09-04T17:55:43.328Z,24.88
2023-09-04T17:58:12.543Z,24.85
2023-09-04T18:00:41.301Z,24.80
2023-09-04T18:03:09.474Z,24.78
2023-09-04T18:05:38.865Z,24.76
2023-09-04T18:08:07.233Z,24.74
2023-09-04T18:10:35.162Z,24.70
2023-09-04T18:13:03.097Z,24.67
2023-09-04T18:15:32.328Z,24.68
2023-09-04T18:18:00.358Z,24.63
2023-09-04T18:20:28.285Z,24.60
2023-09-04T18:22:56.243Z,24.57
2023-09-04T18:25:24.124Z,24.54
2023-09-04T18:27:52.472Z,24.50
2023-09-04T18:30:20.315Z,24.47
2023-09-04T18:32:49.649Z,24.44
2023-09-04T18:35:17.810Z,24.40
2023-09-04T18:37:45.723Z,24.37
2023-09-04T18:40:15.533Z,24.34
2023-09-04T18:42:43.406Z,24.30
2023-09-04T18:45:11.677Z,24.28
2023-09-04T18:47:39.790Z,24.24
2023-09-04T18:50:09.847Z,24.23
2023-09-04T18:52:37.777Z,24.17
2023-09-04T18:55:06.527Z,24.14
2023-09-04T18:57:34.422Z,24.12
2023-09-04T19:00:07.917Z,24.09
2023-09-04T19:02:35.993Z,24.06
2023-09-04T19:05:06.010Z,24.03
2023-09-04T19:07:35.454Z,24.02
2023-09-04T19:10:03.960Z,23.97
2023-09-04T19:12:32.090Z,23.93
2023-09-04T19:15:00.012Z,23.91
2023-09-04T19:17:27.944Z,23.87
2023-09-04T19:19:55.794Z,23.84
2023-09-04T19:22:23.783Z,23.81
2023-09-04T19:24:53.077Z,23.80
2023-09-04T19:27:24.309Z,23.74
2023-09-04T19:29:52.291Z,23.69
2023-09-04T19:32:20.136Z,23.69
2023-09-04T19:34:48.085Z,23.66
2023-09-04T19:37:15.931Z,23.63
2023-09-04T19:39:51.983Z,23.60
2023-09-04T19:42:28.934Z,23.58
2023-09-04T19:44:56.801Z,23.53
2023-09-04T19:47:24.670Z,23.50
2023-09-04T19:49:52.593Z,23.47
2023-09-04T19:52:20.544Z,23.46
2023-09-04T19:54:48.714Z,23.43
2023-09-04T19:57:16.712Z,23.41
2023-09-04T19:59:46.115Z,23.41
2023-09-04T20:02:14.008Z,23.35
2023-09-04T20:04:42.028Z,23.33
2023-09-04T20:07:09.969Z,23.30
2023-09-04T20:09:37.853Z,23.28
2023-09-04T20:12:06.589Z,23.26
2023-09-04T20:14:34.412Z,23.24
2023-09-04T20:17:04.033Z,23.23
2023-09-04T20:19:32.964Z,23.17
2023-09-04T20:22:00.806Z,23.15
2023-09-04T20:24:28.663Z,23.12
2023-09-04T20:26:56.625Z,23.10
2023-09-04T20:29:25.593Z,23.08
2023-09-04T20:31:53.485Z,23.05
2023-09-04T20:34:22.719Z,23.05
2023-09-04T20:36:50.674Z,23.00
2023-09-04T20:39:18.652Z,22.99
2023-09-04T20:41:46.980Z,22.96
2023-09-04T20:44:14.558Z,22.94
2023-09-04T20:46:42.487Z,22.92
2023-09-04T20:49:10.363Z,22.90
2023-09-04T20:51:39.859Z,22.90
2023-09-04T20:54:08.073Z,22.87
2023-09-04T20:56:36.125Z,22.85
2023-09-04T20:59:04.005Z,22.83
2023-09-04T21:01:31.889Z,22.81
2023-09-04T21:03:59.967Z,22.80
2023-09-04T21:06:28.015Z,22.78
2023-09-04T21:08:56.138Z,22.77
2023-09-04T21:11:22.860Z,22.74
2023-09-04T21:14:08.516Z,22.72
2023-09-04T21:16:53.856Z,22.68
2023-09-04T21:19:39.359Z,22.64
2023-09-04T21:22:24.992Z,22.61
2023-09-04T21:25:11.571Z,22.60
2023-09-04T21:27:57.265Z,22.56
2023-09-04T21:30:42.386Z,22.52
2023-09-04T21:33:28.066Z,22.50
2023-09-04T21:36:13.975Z,22.48
2023-09-04T21:38:59.680Z,22.46
2023-09-04T21:41:46.574Z,22.44
2023-09-04T21:44:32.024Z,22.38
2023-09-04T21:47:17.142Z,22.36
2023-09-04T21:50:02.942Z,22.32
2023-09-04T21:52:48.093Z,22.28
2023-09-04T21:55:33.415Z,22.21
2023-09-04T21:58:20.097Z,22.20
2023-09-04T22:01:05.580Z,22.13
2023-09-04T22:03:51.123Z,22.09
2023-09-04T22:06:36.589Z,22.06
2023-09-04T22:09:23.369Z,22.05
2023-09-04T22:12:08.771Z,22.03
2023-09-04T22:14:55.190Z,22.04
2023-09-04T22:17:40.439Z,21.99
2023-09-04T22:20:26.554Z,21.97
2023-09-04T22:23:11.949Z,21.94
2023-09-04T22:25:57.259Z,21.90
2023-09-04T22:28:42.686Z,21.87
2023-09-04T22:31:29.527Z,21.85
2023-09-04T22:34:15.155Z,21.79
2023-09-04T22:37:00.461Z,21.76
2023-09-04T22:39:45.644Z,21.73
2023-09-04T22:42:31.020Z,21.72
2023-09-04T22:45:16.416Z,21.70
2023-09-04T22:48:03.001Z,21.71
2023-09-04T22:50:48.195Z,21.68
2023-09-04T22:53:33.495Z,21.68
2023-09-04T22:56:18.790Z,21.66
2023-09-04T22:59:04.089Z,21.64
2023-09-04T23:01:51.449Z,21.64
2023-09-04T23:04:38.372Z,21.61
2023-09-04T23:07:23.777Z,21.57
2023-09-04T23:10:09.414Z,21.56
2023-09-04T23:12:54.708Z,21.55
2023-09-04T23:15:39.895Z,21.53
2023-09-04T23:18:25.697Z,21.52
2023-09-04T23:21:05.991Z,21.55
2023-09-04T23:23:52.205Z,21.55
2023-09-04T23:26:38.242Z,21.54
2023-09-04T23:29:07.145Z,21.55
2023-09-04T23:31:35.677Z,21.56
2023-09-04T23:34:04.447Z,21.57
2023-09-04T23:36:48.393Z,21.61
2023-09-04T23:39:33.958Z,21.59
2023-09-04T23:42:20.704Z,21.60
2023-09-04T23:45:05.996Z,21.59
2023-09-04T23:47:36.809Z,21.61
2023-09-04T23:50:05.314Z,21.64
2023-09-04T23:52:34.500Z,21.66
2023-09-04T23:55:04.421Z,21.67
2023-09-04T23:57:32.965Z,21.66
